RELEVES METEO NEUVILLE
Donnes mto: Actuelle mardi, 07/04/2020 18:55
Date Horaire Temp. E. Hum. E. P.atmo. Pluie Vent Direction Direction P. de rose Temp au vent Rafales
07/04/2020 18:55 20,8 C 55 % 1025,4 hPa 0,0 mm 1,6 km/h (1 Bft) NE 51 11,4 C 20,8 C 8,0 km/h (2 Bft)
07/04/2020 18:50 20,8 C 55 % 1025,4 hPa 0,0 mm 2,7 km/h (1 Bft) NE 36 11,4 C 20,8 C 9,7 km/h (2 Bft)
07/04/2020 18:45 20,9 C 54 % 1025,4 hPa 0,0 mm 3,7 km/h (1 Bft) NE 38 11,2 C 20,9 C 9,7 km/h (2 Bft)
07/04/2020 18:40 20,9 C 54 % 1025,4 hPa 0,0 mm 2,9 km/h (1 Bft) NE 47 11,2 C 20,9 C 11,3 km/h (2 Bft)
07/04/2020 18:35 21,0 C 54 % 1025,5 hPa 0,0 mm 3,7 km/h (1 Bft) NE 40 11,3 C 21,0 C 9,7 km/h (2 Bft)
07/04/2020 18:30 21,1 C 53 % 1025,4 hPa 0,0 mm 5,9 km/h (2 Bft) N-NE 21 11,1 C 21,1 C 11,3 km/h (2 Bft)
07/04/2020 18:25 21,1 C 54 % 1025,5 hPa 0,0 mm 2,7 km/h (1 Bft) N-NE 32 11,4 C 21,1 C 9,7 km/h (2 Bft)
07/04/2020 18:20 21,1 C 53 % 1025,5 hPa 0,0 mm 4,0 km/h (1 Bft) N-NE 28 11,1 C 21,1 C 11,3 km/h (2 Bft)
07/04/2020 18:15 21,1 C 54 % 1025,6 hPa 0,0 mm 4,3 km/h (1 Bft) E 80 11,4 C 21,1 C 9,7 km/h (2 Bft)
07/04/2020 18:10 21,1 C 54 % 1025,6 hPa 0,0 mm 2,8 km/h (1 Bft) N-NE 30 11,4 C 21,1 C 12,9 km/h (3 Bft)
07/04/2020 18:05 21,1 C 54 % 1025,6 hPa 0,0 mm 2,5 km/h (1 Bft) E-NE 63 11,4 C 21,1 C 9,7 km/h (2 Bft)
07/04/2020 18:00 21,1 C 53 % 1025,6 hPa 0,0 mm 3,6 km/h (1 Bft) NE 38 11,1 C 21,1 C 9,7 km/h (2 Bft)
07/04/2020 17:55 21,1 C 53 % 1025,6 hPa 0,0 mm 2,6 km/h (1 Bft) NE 35 11,1 C 21,1 C 6,4 km/h (2 Bft)
07/04/2020 17:50 21,2 C 52 % 1025,7 hPa 0,0 mm 3,1 km/h (1 Bft) N-NE 32 10,9 C 21,2 C 11,3 km/h (2 Bft)
07/04/2020 17:45 21,3 C 52 % 1025,8 hPa 0,0 mm 4,3 km/h (1 Bft) NE 41 11,0 C 21,3 C 11,3 km/h (2 Bft)
07/04/2020 17:40 21,6 C 52 % 1025,8 hPa 0,0 mm 4,8 km/h (1 Bft) E-NE 67 11,3 C 21,6 C 11,3 km/h (2 Bft)
07/04/2020 17:35 21,8 C 51 % 1025,9 hPa 0,0 mm 4,1 km/h (1 Bft) NE 38 11,2 C 21,8 C 12,9 km/h (3 Bft)
07/04/2020 17:30 22,0 C 50 % 1025,9 hPa 0,0 mm 1,5 km/h (1 Bft) NE 46 11,1 C 22,0 C 8,0 km/h (2 Bft)
07/04/2020 17:25 22,1 C 51 % 1025,9 hPa 0,0 mm 0,6 km/h (0 Bft) E-NE 64 11,5 C 22,1 C 3,2 km/h (1 Bft)
07/04/2020 17:20 22,1 C 50 % 1026,0 hPa 0,0 mm 1,1 km/h (1 Bft) E-NE 70 11,2 C 22,1 C 6,4 km/h (2 Bft)
07/04/2020 17:15 22,2 C 51 % 1026,0 hPa 0,0 mm 0,9 km/h (0 Bft) E-NE 67 11,6 C 22,2 C 4,8 km/h (1 Bft)
_ Min-Heure 07:20 17:00 18:30 - 00:00 - - 07:20 07:20 00:00
Minimum _ 3,8 C 50 % 1025,4 hPa - 0,0 km/h (0 Bft) - - 2,6 C 3,8 C 0,0 km/h (0 Bft)
_ Max-Heure 17:15 09:15 09:30 06:20 13:15 - - 15:35 17:15 13:20
Maximum _ 22,2 C 96 % 1029,8 hPa 0,2 mm 6,7 km/h
N-NE (2 Bft)
- - 12,2 C 22,2 C 17,7 km/h
N-NE (3 Bft)
Moyenne _ 12,2 C 78 % 1027,9 hPa #0,2 mm 1,2 km/h (1 Bft) NE - 8,0 C 12,2 C 4,7 km/h (1 Bft)
NEUVILLE ST REMY